createdAt,value
2019-06-01T00:00:12.457Z,0.00
2019-06-01T00:01:12.019Z,0.00
2019-06-01T00:02:11.899Z,0.00
2019-06-01T00:03:11.972Z,0.00
2019-06-01T00:04:11.883Z,0.00
2019-06-01T00:05:11.927Z,0.00
2019-06-01T00:06:11.832Z,0.00
2019-06-01T00:07:11.947Z,0.00
2019-06-01T00:08:11.828Z,0.00
2019-06-01T00:09:11.879Z,0.00
2019-06-01T00:10:11.789Z,0.00
2019-06-01T00:11:11.866Z,0.00
2019-06-01T00:12:11.767Z,0.00
2019-06-01T00:13:11.876Z,0.00
2019-06-01T00:14:11.787Z,0.00
2019-06-01T00:15:11.797Z,0.00
2019-06-01T00:16:11.721Z,0.00
2019-06-01T00:17:11.819Z,0.00
2019-06-01T00:18:11.715Z,0.00
2019-06-01T00:19:11.857Z,0.00
2019-06-01T00:20:11.700Z,0.00
2019-06-01T00:21:11.730Z,0.00
2019-06-01T00:22:11.719Z,0.00
2019-06-01T00:23:11.756Z,0.00
2019-06-01T00:24:11.723Z,0.00
2019-06-01T00:25:11.783Z,0.00
2019-06-01T00:26:11.628Z,0.00
2019-06-01T00:27:11.664Z,0.00
2019-06-01T00:28:11.611Z,0.00
2019-06-01T00:29:11.678Z,0.00
2019-06-01T00:30:26.154Z,0.00
2019-06-01T00:31:12.574Z,0.00
2019-06-01T00:32:11.603Z,0.00
2019-06-01T00:33:11.540Z,0.00
2019-06-01T00:34:11.652Z,0.00
2019-06-01T00:35:11.551Z,0.00
2019-06-01T00:37:12.657Z,0.00
2019-06-01T00:38:11.542Z,0.00
2019-06-01T00:39:11.475Z,0.00
2019-06-01T00:40:11.586Z,0.00
2019-06-01T00:41:11.452Z,0.00
2019-06-01T00:42:11.605Z,0.00
2019-06-01T00:43:11.482Z,0.00
2019-06-01T00:44:11.485Z,0.00
2019-06-01T00:45:11.453Z,0.00
2019-06-01T00:46:11.501Z,0.00
2019-06-01T00:47:11.398Z,0.00
2019-06-01T00:48:11.422Z,0.00
2019-06-01T00:49:11.377Z,0.00
2019-06-01T00:50:11.465Z,0.00
2019-06-01T00:51:11.348Z,0.00
2019-06-01T00:53:12.507Z,0.00
2019-06-01T00:54:11.352Z,0.00
2019-06-01T00:55:11.387Z,0.00
2019-06-01T00:56:11.286Z,0.00
2019-06-01T00:57:11.383Z,0.00
2019-06-01T00:58:11.300Z,0.00
2019-06-01T00:59:11.387Z,0.00
2019-06-01T01:00:11.296Z,0.00
2019-06-01T01:01:11.319Z,0.00
2019-06-01T01:02:11.223Z,0.00
2019-06-01T01:03:11.309Z,0.00
2019-06-01T01:04:11.200Z,0.00
2019-06-01T01:05:11.266Z,0.00
2019-06-01T01:06:11.226Z,0.00
2019-06-01T01:07:11.263Z,0.00
2019-06-01T01:08:11.199Z,0.00
2019-06-01T01:09:11.263Z,0.00
2019-06-01T01:10:11.133Z,0.00
2019-06-01T01:11:11.196Z,0.00
2019-06-01T01:12:11.130Z,0.00
2019-06-01T01:13:11.171Z,0.00
2019-06-01T01:14:11.093Z,0.00
2019-06-01T01:15:11.211Z,0.00
2019-06-01T01:16:11.111Z,0.00
2019-06-01T01:17:11.108Z,0.00
2019-06-01T01:18:11.043Z,0.00
2019-06-01T01:19:11.133Z,0.00
2019-06-01T01:20:11.025Z,0.00
2019-06-01T01:21:11.174Z,0.00
2019-06-01T01:22:11.008Z,0.00
2019-06-01T01:23:11.038Z,0.00
2019-06-01T01:24:10.986Z,0.00
2019-06-01T01:25:11.047Z,0.00
2019-06-01T01:26:11.006Z,0.00
2019-06-01T01:27:11.097Z,0.00
2019-06-01T01:28:10.970Z,0.00
2019-06-01T01:29:10.985Z,0.00
2019-06-01T01:30:10.914Z,0.00
2019-06-01T01:31:14.024Z,0.00
2019-06-01T01:32:10.890Z,0.00
2019-06-01T01:33:11.004Z,0.00
2019-06-01T01:34:10.913Z,0.00
2019-06-01T01:35:10.959Z,0.00
2019-06-01T01:36:10.903Z,0.00
2019-06-01T01:37:10.990Z,0.00
2019-06-01T01:38:10.829Z,0.00
2019-06-01T01:39:10.853Z,0.00
2019-06-01T01:40:10.820Z,0.00
2019-06-01T01:41:10.872Z,0.00
2019-06-01T01:42:10.822Z,0.00
2019-06-01T01:43:10.881Z,0.00
2019-06-01T01:44:10.779Z,0.00
2019-06-01T01:45:10.791Z,0.00
2019-06-01T01:46:10.742Z,0.00
2019-06-01T01:47:14.299Z,0.00
2019-06-01T01:48:10.714Z,0.00
2019-06-01T01:49:10.818Z,0.00
2019-06-01T01:50:10.699Z,0.00
2019-06-01T01:51:10.744Z,0.00
2019-06-01T01:52:10.692Z,0.00
2019-06-01T01:53:10.742Z,0.00
2019-06-01T01:54:10.648Z,0.00
2019-06-01T01:55:10.754Z,0.00
2019-06-01T01:56:10.658Z,0.00
2019-06-01T01:57:10.727Z,0.00
2019-06-01T01:58:10.613Z,0.00
2019-06-01T01:59:10.722Z,0.00
2019-06-01T02:00:10.609Z,0.00
2019-06-01T02:01:22.389Z,0.00
2019-06-01T02:02:11.617Z,0.00
2019-06-01T02:03:10.625Z,0.00
2019-06-01T02:04:10.545Z,0.00
2019-06-01T02:05:10.622Z,0.00
2019-06-01T02:06:10.526Z,0.00
2019-06-01T02:07:10.676Z,0.00
2019-06-01T02:08:10.524Z,0.00
2019-06-01T02:09:10.563Z,0.00
2019-06-01T02:10:10.472Z,0.00
2019-06-01T02:11:10.556Z,0.00
2019-06-01T02:12:10.514Z,0.00
2019-06-01T02:13:10.624Z,0.00
2019-06-01T02:14:10.466Z,0.00
2019-06-01T02:15:10.497Z,0.00
2019-06-01T02:16:10.424Z,0.00
2019-06-01T02:17:10.508Z,0.00
2019-06-01T02:18:10.456Z,0.00
2019-06-01T02:19:10.408Z,0.00
2019-06-01T02:20:10.431Z,0.00
2019-06-01T02:22:11.535Z,0.00
2019-06-01T02:23:10.485Z,0.00
2019-06-01T02:24:10.328Z,0.00
2019-06-01T02:25:10.342Z,0.00
2019-06-01T02:26:10.298Z,0.00
2019-06-01T02:27:10.361Z,0.00
2019-06-01T02:28:10.298Z,0.00
2019-06-01T02:29:10.383Z,0.00
2019-06-01T02:30:10.268Z,0.00
2019-06-01T02:31:10.290Z,0.00
2019-06-01T02:32:10.240Z,0.00
2019-06-01T02:33:10.328Z,0.00
2019-06-01T02:34:10.214Z,0.00
2019-06-01T02:35:10.330Z,0.00
2019-06-01T02:36:10.195Z,0.00
2019-06-01T02:37:10.230Z,0.00
2019-06-01T02:38:10.199Z,0.00
2019-06-01T02:39:10.244Z,0.00
2019-06-01T02:40:10.196Z,0.00
2019-06-01T02:41:10.256Z,0.00
2019-06-01T02:42:10.134Z,0.00
2019-06-01T02:43:10.195Z,0.00
2019-06-01T02:44:10.118Z,0.00
2019-06-01T02:45:10.181Z,0.00
2019-06-01T02:46:10.097Z,4.00
2019-06-01T02:47:10.190Z,4.00
2019-06-01T02:48:10.089Z,4.00
2019-06-01T02:49:10.148Z,0.00
2019-06-01T02:50:10.042Z,0.00
2019-06-01T02:51:10.139Z,4.00
2019-06-01T02:52:10.022Z,4.00
2019-06-01T02:53:10.140Z,4.00
2019-06-01T02:54:10.035Z,4.00
2019-06-01T02:55:10.050Z,8.00
2019-06-01T02:56:09.992Z,4.00
2019-06-01T02:57:10.064Z,8.00
2019-06-01T02:58:09.962Z,8.00
2019-06-01T02:59:10.106Z,8.00
2019-06-01T03:00:09.973Z,8.00
2019-06-01T03:01:09.989Z,8.00
2019-06-01T03:02:13.533Z,12.00
2019-06-01T03:03:11.031Z,12.00
2019-06-01T03:04:09.945Z,16.00
2019-06-01T03:05:10.040Z,16.00
2019-06-01T03:06:09.917Z,16.00
2019-06-01T03:07:09.934Z,20.00
2019-06-01T03:08:09.856Z,24.00
2019-06-01T03:09:09.983Z,28.00
2019-06-01T03:10:09.873Z,32.00
2019-06-01T03:11:09.853Z,32.00
2019-06-01T03:12:09.810Z,32.00
2019-06-01T03:13:09.871Z,36.00
2019-06-01T03:14:09.815Z,36.00
2019-06-01T03:15:09.888Z,44.00
2019-06-01T03:16:09.765Z,48.00
2019-06-01T03:17:09.907Z,48.00
2019-06-01T03:18:09.738Z,52.00
2019-06-01T03:19:09.845Z,56.00
2019-06-01T03:20:09.720Z,60.00
2019-06-01T03:21:09.827Z,68.00
2019-06-01T03:22:09.706Z,72.00
2019-06-01T03:23:09.740Z,80.00
2019-06-01T03:24:09.723Z,84.00
2019-06-01T03:25:09.739Z,92.00
2019-06-01T03:26:09.676Z,100.00
2019-06-01T03:27:09.761Z,108.00
2019-06-01T03:28:09.649Z,116.00
2019-06-01T03:29:09.707Z,124.00
2019-06-01T03:30:12.342Z,140.00
2019-06-01T03:31:10.827Z,148.00
2019-06-01T03:32:31.066Z,160.00
2019-06-01T03:33:10.745Z,168.00
2019-06-01T03:34:11.411Z,180.00
2019-06-01T03:35:09.619Z,188.00
2019-06-01T03:36:09.625Z,192.00
2019-06-01T03:37:09.548Z,204.00
2019-06-01T03:38:09.628Z,216.00
2019-06-01T03:39:09.528Z,224.00
2019-06-01T03:40:19.706Z,232.00
2019-06-01T03:41:10.535Z,240.00
2019-06-01T03:42:09.567Z,248.00
2019-06-01T03:43:09.488Z,256.00
2019-06-01T03:44:09.571Z,264.00
2019-06-01T03:45:09.691Z,272.00
2019-06-01T03:46:09.482Z,284.00
2019-06-01T03:47:09.773Z,296.00
2019-06-01T03:48:09.512Z,308.00
2019-06-01T03:49:09.764Z,320.00
2019-06-01T03:50:09.554Z,336.00
2019-06-01T03:51:09.853Z,348.00
2019-06-01T03:52:09.450Z,360.00
2019-06-01T03:53:09.949Z,376.00
2019-06-01T03:54:10.112Z,384.00
2019-06-01T03:55:09.910Z,396.00
2019-06-01T03:56:09.463Z,408.00
2019-06-01T03:57:09.337Z,416.00
2019-06-01T03:58:09.357Z,424.00
2019-06-01T03:59:09.458Z,436.00
2019-06-01T04:00:09.530Z,440.00
2019-06-01T04:01:09.291Z,444.00
2019-06-01T04:02:09.403Z,456.00
2019-06-01T04:03:09.344Z,468.00
2019-06-01T04:05:11.375Z,476.00
2019-06-01T04:06:09.429Z,472.00
2019-06-01T04:07:10.630Z,476.00
2019-06-01T04:08:09.733Z,480.00
2019-06-01T04:09:09.828Z,480.00
2019-06-01T04:10:09.961Z,484.00
2019-06-01T04:11:09.799Z,488.00
2019-06-01T04:12:09.749Z,488.00
2019-06-01T04:13:09.612Z,492.00
2019-06-01T04:14:09.845Z,496.00
2019-06-01T04:15:12.818Z,504.00
2019-06-01T04:16:10.541Z,520.00
2019-06-01T04:17:10.219Z,528.00
2019-06-01T04:18:10.280Z,544.00
2019-06-01T04:19:10.013Z,556.00
2019-06-01T04:20:10.199Z,564.00
2019-06-01T04:21:10.270Z,576.00
2019-06-01T04:22:10.161Z,592.00
2019-06-01T04:23:09.983Z,612.00
2019-06-01T04:24:10.211Z,636.00
2019-06-01T04:25:10.223Z,656.00
2019-06-01T04:26:10.299Z,676.00
2019-06-01T04:27:10.124Z,692.00
2019-06-01T04:28:10.222Z,704.00
2019-06-01T04:29:10.261Z,716.00
2019-06-01T04:30:09.504Z,712.00
2019-06-01T04:31:09.001Z,700.00
2019-06-01T04:32:11.025Z,692.00
2019-06-01T04:33:09.035Z,692.00
2019-06-01T04:34:08.990Z,704.00
2019-06-01T04:35:09.101Z,720.00
2019-06-01T04:36:09.070Z,740.00
2019-06-01T04:37:09.218Z,756.00
2019-06-01T04:38:09.248Z,772.00
2019-06-01T04:39:09.451Z,784.00
2019-06-01T04:40:09.531Z,796.00
2019-06-01T04:41:09.748Z,816.00
2019-06-01T04:42:09.751Z,840.00
2019-06-01T04:43:10.133Z,860.00
2019-06-01T04:44:10.023Z,880.00
2019-06-01T04:45:09.485Z,904.00
2019-06-01T04:47:10.789Z,944.00
2019-06-01T04:48:08.889Z,992.00
2019-06-01T04:49:08.758Z,1012.00
2019-06-01T04:51:11.754Z,992.00
2019-06-01T04:52:08.922Z,948.00
2019-06-01T04:53:08.881Z,896.00
2019-06-01T04:55:11.033Z,816.00
2019-06-01T04:56:09.081Z,780.00
2019-06-01T04:57:08.962Z,736.00
2019-06-01T04:58:09.015Z,720.00
2019-06-01T04:59:08.923Z,692.00
2019-06-01T05:00:21.501Z,664.00
2019-06-01T05:01:09.637Z,660.00
2019-06-01T05:02:09.271Z,648.00
2019-06-01T05:03:09.291Z,632.00
2019-06-01T05:05:09.728Z,632.00
2019-06-01T05:06:09.246Z,652.00
2019-06-01T05:07:09.281Z,664.00
2019-06-01T05:08:09.391Z,672.00
2019-06-01T05:09:09.276Z,672.00
2019-06-01T05:10:09.466Z,664.00
2019-06-01T05:11:09.087Z,676.00
2019-06-01T05:12:09.320Z,680.00
2019-06-01T05:13:09.407Z,660.00
2019-06-01T05:14:09.698Z,644.00
2019-06-01T05:15:09.774Z,624.00
2019-06-01T05:16:09.926Z,640.00
2019-06-01T05:17:10.016Z,700.00
2019-06-01T05:18:10.073Z,728.00
2019-06-01T05:19:08.436Z,740.00
2019-06-01T05:20:08.552Z,756.00
2019-06-01T05:21:08.492Z,776.00
2019-06-01T05:22:08.517Z,792.00
2019-06-01T05:23:08.597Z,832.00
2019-06-01T05:24:08.847Z,876.00
2019-06-01T05:25:08.968Z,924.00
2019-06-01T05:26:08.770Z,952.00
2019-06-01T05:27:08.981Z,976.00
2019-06-01T05:28:09.116Z,984.00
2019-06-01T05:29:09.400Z,996.00
2019-06-01T05:30:09.444Z,1004.00
2019-06-01T05:31:09.656Z,1012.00
2019-06-01T05:32:08.448Z,1016.00
2019-06-01T05:33:22.397Z,1020.00
2019-06-01T05:34:09.696Z,1028.00
2019-06-01T05:35:08.300Z,1032.00
2019-06-01T05:36:08.255Z,1028.00
2019-06-01T05:37:08.569Z,1024.00
2019-06-01T05:38:08.265Z,1016.00
2019-06-01T05:39:08.400Z,1012.00
2019-06-01T05:40:08.489Z,1008.00
2019-06-01T05:41:10.073Z,1004.00
2019-06-01T05:42:08.900Z,996.00
2019-06-01T05:43:13.885Z,992.00
2019-06-01T05:44:09.161Z,988.00
2019-06-01T05:45:09.124Z,980.00
2019-06-01T05:46:08.199Z,976.00
2019-06-01T05:47:08.176Z,964.00
2019-06-01T05:48:08.148Z,984.00
2019-06-01T05:49:08.200Z,984.00
2019-06-01T05:50:08.106Z,964.00
2019-06-01T05:51:08.413Z,968.00
2019-06-01T05:52:08.074Z,932.00
2019-06-01T05:53:08.164Z,904.00
2019-06-01T05:54:08.048Z,884.00
2019-06-01T05:55:08.133Z,888.00
2019-06-01T05:56:08.030Z,872.00
2019-06-01T05:57:08.146Z,868.00
2019-06-01T05:58:08.047Z,860.00
2019-06-01T05:59:08.086Z,852.00
2019-06-01T06:00:07.987Z,896.00
2019-06-01T06:01:08.076Z,896.00
2019-06-01T06:02:07.967Z,908.00
2019-06-01T06:03:08.115Z,916.00
2019-06-01T06:04:07.942Z,928.00
2019-06-01T06:05:08.009Z,936.00
2019-06-01T06:06:07.923Z,968.00
2019-06-01T06:07:08.032Z,960.00
2019-06-01T06:08:07.897Z,976.00
2019-06-01T06:09:07.995Z,976.00
2019-06-01T06:10:07.873Z,988.00
2019-06-01T06:11:07.932Z,992.00
2019-06-01T06:12:07.874Z,1000.00
2019-06-01T06:13:07.971Z,1008.00
2019-06-01T06:14:07.877Z,1004.00
2019-06-01T06:15:07.890Z,1020.00
2019-06-01T06:16:07.811Z,1044.00
2019-06-01T06:17:07.880Z,1064.00
2019-06-01T06:18:07.796Z,1080.00
2019-06-01T06:19:07.915Z,1080.00
2019-06-01T06:20:07.793Z,1092.00
2019-06-01T06:21:07.801Z,1120.00
2019-06-01T06:22:07.745Z,1132.00
2019-06-01T06:23:07.819Z,1148.00
2019-06-01T06:24:07.772Z,1156.00
2019-06-01T06:25:07.833Z,1160.00
2019-06-01T06:26:07.707Z,1168.00
2019-06-01T06:27:07.734Z,1176.00
2019-06-01T06:28:07.705Z,1156.00
2019-06-01T06:29:07.790Z,1192.00
2019-06-01T06:30:07.700Z,1224.00
2019-06-01T06:31:07.766Z,1236.00
2019-06-01T06:32:09.338Z,1244.00
2019-06-01T06:33:07.734Z,1260.00
2019-06-01T06:34:07.690Z,1276.00
2019-06-01T06:35:07.760Z,1284.00
2019-06-01T06:36:07.599Z,1308.00
2019-06-01T06:37:07.711Z,1328.00
2019-06-01T06:38:07.615Z,1360.00
2019-06-01T06:39:07.642Z,1412.00
2019-06-01T06:40:07.569Z,1496.00
2019-06-01T06:41:07.633Z,1632.00
2019-06-01T06:42:07.526Z,1756.00
2019-06-01T06:43:18.910Z,1892.00
2019-06-01T06:44:08.545Z,2016.00
2019-06-01T06:45:07.625Z,2188.00
2019-06-01T06:46:07.487Z,2356.00
2019-06-01T06:47:07.570Z,2428.00
2019-06-01T06:48:07.497Z,2328.00
2019-06-01T06:49:09.950Z,2164.00
2019-06-01T06:50:07.507Z,1968.00
2019-06-01T06:51:07.498Z,1828.00
2019-06-01T06:52:07.428Z,1544.00
2019-06-01T06:53:07.512Z,1384.00
2019-06-01T06:54:07.395Z,1352.00
2019-06-01T06:55:07.457Z,1400.00
2019-06-01T06:56:07.392Z,1404.00
2019-06-01T06:57:07.443Z,1332.00
2019-06-01T06:58:07.369Z,1320.00
2019-06-01T06:59:07.458Z,1412.00
2019-06-01T07:00:07.374Z,1508.00
2019-06-01T07:01:07.363Z,1516.00
2019-06-01T07:02:07.323Z,1540.00
2019-06-01T07:03:07.377Z,1572.00
2019-06-01T07:04:12.648Z,1580.00
2019-06-01T07:05:08.347Z,1604.00
2019-06-01T07:06:07.276Z,1620.00
2019-06-01T07:07:07.318Z,1628.00
2019-06-01T07:08:07.250Z,1656.00
2019-06-01T07:09:07.321Z,1676.00
2019-06-01T07:10:07.267Z,1664.00
2019-06-01T07:11:07.366Z,1628.00
2019-06-01T07:12:07.225Z,1640.00
2019-06-01T07:13:07.248Z,1644.00
2019-06-01T07:14:07.189Z,1672.00
2019-06-01T07:15:07.291Z,1676.00
2019-06-01T07:16:07.207Z,1664.00
2019-06-01T07:17:07.278Z,1704.00
2019-06-01T07:18:07.150Z,1712.00
2019-06-01T07:19:07.204Z,1736.00
2019-06-01T07:20:07.171Z,1736.00
2019-06-01T07:21:07.211Z,1756.00
2019-06-01T07:22:07.093Z,1764.00
2019-06-01T07:23:07.229Z,1828.00
2019-06-01T07:24:07.094Z,1840.00
2019-06-01T07:25:07.116Z,1848.00
2019-06-01T07:26:07.105Z,1852.00
2019-06-01T07:27:07.163Z,1860.00
2019-06-01T07:28:07.041Z,1888.00
2019-06-01T07:29:07.042Z,1868.00
2019-06-01T07:30:07.004Z,1872.00
2019-06-01T07:31:07.060Z,1860.00
2019-06-01T07:32:07.025Z,1864.00
2019-06-01T07:33:07.069Z,1856.00
2019-06-01T07:34:06.973Z,1856.00
2019-06-01T07:35:06.980Z,1876.00
2019-06-01T07:36:06.949Z,1852.00
2019-06-01T07:37:07.133Z,1872.00
2019-06-01T07:38:06.939Z,1856.00
2019-06-01T07:39:07.078Z,1884.00
2019-06-01T07:40:06.907Z,1848.00
2019-06-01T07:41:06.962Z,1852.00
2019-06-01T07:42:06.888Z,1868.00
2019-06-01T07:43:06.934Z,1840.00
2019-06-01T07:44:06.864Z,1844.00
2019-06-01T07:45:07.005Z,1844.00
2019-06-01T07:46:06.854Z,1856.00
2019-06-01T07:47:06.964Z,1860.00
2019-06-01T07:48:06.808Z,1864.00
2019-06-01T07:49:06.900Z,1880.00
2019-06-01T07:50:06.795Z,1924.00
2019-06-01T07:51:06.893Z,1932.00
2019-06-01T07:52:13.017Z,1964.00
2019-06-01T07:53:07.854Z,1968.00
2019-06-01T07:54:06.751Z,1984.00
2019-06-01T07:55:06.827Z,1988.00
2019-06-01T07:56:06.727Z,2004.00
2019-06-01T07:57:06.888Z,1936.00
2019-06-01T07:58:06.705Z,2048.00
2019-06-01T07:59:06.788Z,2036.00
2019-06-01T08:00:06.681Z,2036.00
2019-06-01T08:01:06.814Z,2036.00
2019-06-01T08:02:06.715Z,2060.00
2019-06-01T08:03:06.791Z,2044.00
2019-06-01T08:04:06.652Z,2024.00
2019-06-01T08:05:06.673Z,2020.00
2019-06-01T08:06:06.649Z,2012.00
2019-06-01T08:07:06.728Z,2008.00
2019-06-01T08:08:06.622Z,2044.00
2019-06-01T08:09:06.731Z,2064.00
2019-06-01T08:10:06.668Z,2084.00
2019-06-01T08:11:06.625Z,2140.00
2019-06-01T08:12:06.583Z,2200.00
2019-06-01T08:13:06.697Z,2284.00
2019-06-01T08:14:06.533Z,2376.00
2019-06-01T08:15:08.622Z,2516.00
2019-06-01T08:16:06.525Z,2648.00
2019-06-01T08:17:06.595Z,2820.00
2019-06-01T08:18:06.787Z,2928.00
2019-06-01T08:19:06.577Z,2988.00
2019-06-01T08:20:06.489Z,3064.00
2019-06-01T08:21:06.496Z,3032.00
2019-06-01T08:22:06.559Z,2980.00
2019-06-01T08:23:06.529Z,2948.00
2019-06-01T08:24:06.455Z,2848.00
2019-06-01T08:25:06.511Z,2940.00
2019-06-01T08:26:06.432Z,2976.00
2019-06-01T08:27:06.421Z,2880.00
2019-06-01T08:28:06.423Z,2716.00
2019-06-01T08:29:06.440Z,2504.00
2019-06-01T08:30:06.360Z,2396.00
2019-06-01T08:31:06.483Z,2404.00
2019-06-01T08:32:06.353Z,2264.00
2019-06-01T08:33:06.607Z,2148.00
2019-06-01T08:34:06.333Z,2124.00
2019-06-01T08:35:09.175Z,2192.00
2019-06-01T08:36:06.297Z,2256.00
2019-06-01T08:37:06.397Z,2480.00
2019-06-01T08:38:06.301Z,2680.00
2019-06-01T08:39:06.353Z,2740.00
2019-06-01T08:40:06.264Z,2984.00
2019-06-01T08:41:06.323Z,2872.00
2019-06-01T08:42:06.228Z,2620.00
2019-06-01T08:43:06.412Z,2564.00
2019-06-01T08:44:06.211Z,2496.00
2019-06-01T08:45:06.250Z,2544.00
2019-06-01T08:46:06.191Z,2476.00
2019-06-01T08:47:06.265Z,2388.00
2019-06-01T08:48:06.224Z,2288.00
2019-06-01T08:49:06.282Z,2384.00
2019-06-01T08:50:06.155Z,2316.00
2019-06-01T08:51:06.191Z,2148.00
2019-06-01T08:52:06.118Z,2052.00
2019-06-01T08:53:06.245Z,2272.00
2019-06-01T08:54:06.154Z,2320.00
2019-06-01T08:55:06.218Z,2368.00
2019-06-01T08:56:06.070Z,2368.00
2019-06-01T08:57:06.125Z,2328.00
2019-06-01T08:58:06.058Z,2452.00
2019-06-01T08:59:06.186Z,2816.00
2019-06-01T09:00:06.039Z,2812.00
2019-06-01T09:01:06.173Z,2528.00
2019-06-01T09:02:06.009Z,2492.00
2019-06-01T09:03:06.124Z,2468.00
2019-06-01T09:04:06.171Z,2452.00
2019-06-01T09:06:07.111Z,2256.00
2019-06-01T09:08:07.129Z,2824.00
2019-06-01T09:09:07.487Z,3264.00
2019-06-01T09:10:05.932Z,2908.00
2019-06-01T09:12:07.063Z,2260.00
2019-06-01T09:14:07.056Z,2356.00
2019-06-01T09:15:07.461Z,2180.00
2019-06-01T09:16:05.876Z,2060.00
2019-06-01T09:18:07.019Z,1728.00
2019-06-01T09:19:11.204Z,2216.00
2019-06-01T09:20:05.893Z,2340.00
2019-06-01T09:21:08.134Z,2232.00
2019-06-01T09:22:05.808Z,2236.00
2019-06-01T09:23:08.255Z,2220.00
2019-06-01T09:24:05.802Z,2248.00
2019-06-01T09:25:08.521Z,2208.00
2019-06-01T09:26:05.755Z,2152.00
2019-06-01T09:27:06.251Z,2136.00
2019-06-01T09:28:05.730Z,2100.00
2019-06-01T09:29:08.637Z,2148.00
2019-06-01T09:30:05.755Z,2220.00
2019-06-01T09:32:10.912Z,2200.00
2019-06-01T09:34:06.832Z,2184.00
2019-06-01T09:35:09.124Z,2108.00
2019-06-01T09:36:05.668Z,1948.00
2019-06-01T09:38:06.781Z,1900.00
2019-06-01T09:39:07.969Z,2088.00
2019-06-01T09:40:05.638Z,2132.00
2019-06-01T09:42:06.759Z,1972.00
2019-06-01T09:44:06.749Z,2068.00
2019-06-01T09:45:09.164Z,2080.00
2019-06-01T09:46:05.546Z,2160.00
2019-06-01T09:47:09.238Z,2160.00
2019-06-01T09:48:05.516Z,2188.00
2019-06-01T09:49:09.355Z,2188.00
2019-06-01T09:50:05.584Z,2208.00
2019-06-01T09:51:08.319Z,2200.00
2019-06-01T09:52:05.493Z,2168.00
2019-06-01T09:53:07.643Z,2192.00
2019-06-01T09:54:05.490Z,2196.00
2019-06-01T09:55:06.562Z,2228.00
2019-06-01T09:56:05.457Z,2212.00
2019-06-01T09:57:07.566Z,2188.00
2019-06-01T09:58:05.436Z,2192.00
2019-06-01T09:59:05.427Z,2148.00
2019-06-01T10:00:05.382Z,2244.00
2019-06-01T10:01:05.502Z,2212.00
2019-06-01T10:02:05.362Z,2236.00
2019-06-01T10:03:05.461Z,2292.00
2019-06-01T10:04:05.343Z,2288.00
2019-06-01T10:05:05.376Z,2232.00
2019-06-01T10:06:05.361Z,2284.00
2019-06-01T10:07:05.414Z,2248.00
2019-06-01T10:08:05.295Z,2280.00
2019-06-01T10:09:05.404Z,2264.00
2019-06-01T10:10:05.295Z,2272.00
2019-06-01T10:11:05.337Z,2276.00
2019-06-01T10:12:05.247Z,2272.00
2019-06-01T10:13:07.695Z,2240.00
2019-06-01T10:14:05.240Z,2272.00
2019-06-01T10:15:05.350Z,2292.00
2019-06-01T10:16:05.240Z,2224.00
2019-06-01T10:17:05.246Z,2224.00
2019-06-01T10:18:05.202Z,2212.00
2019-06-01T10:19:05.261Z,2228.00
2019-06-01T10:20:05.171Z,2232.00
2019-06-01T10:21:05.314Z,2268.00
2019-06-01T10:22:05.196Z,2228.00
2019-06-01T10:23:05.194Z,2220.00
2019-06-01T10:24:05.130Z,2168.00
2019-06-01T10:25:05.203Z,2208.00
2019-06-01T10:26:05.208Z,2196.00
2019-06-01T10:27:05.211Z,2188.00
2019-06-01T10:28:05.207Z,2264.00
2019-06-01T10:29:05.120Z,2244.00
2019-06-01T10:30:05.057Z,2232.00
2019-06-01T10:31:05.196Z,2244.00
2019-06-01T10:32:05.045Z,2312.00
2019-06-01T10:33:05.157Z,2328.00
2019-06-01T10:34:05.236Z,2432.00
2019-06-01T10:35:05.062Z,2404.00
2019-06-01T10:36:19.120Z,2332.00
2019-06-01T10:37:05.989Z,2272.00
2019-06-01T10:38:05.080Z,2292.00
2019-06-01T10:39:04.981Z,2288.00
2019-06-01T10:40:04.994Z,2280.00
2019-06-01T10:41:04.991Z,2288.00
2019-06-01T10:42:05.011Z,2284.00
2019-06-01T10:43:04.929Z,2316.00
2019-06-01T10:44:05.021Z,2316.00
2019-06-01T10:45:04.924Z,2332.00
2019-06-01T10:46:04.947Z,2300.00
2019-06-01T10:47:04.904Z,2320.00
2019-06-01T10:48:04.955Z,2336.00
2019-06-01T10:49:04.863Z,2304.00
2019-06-01T10:50:06.916Z,2308.00
2019-06-01T10:51:04.901Z,2336.00
2019-06-01T10:52:04.911Z,2308.00
2019-06-01T10:53:04.830Z,2316.00
2019-06-01T10:54:04.897Z,2352.00
2019-06-01T10:55:04.792Z,2364.00
2019-06-01T10:56:04.912Z,2360.00
2019-06-01T10:57:04.822Z,2372.00
2019-06-01T10:58:04.827Z,2364.00
2019-06-01T10:59:04.755Z,2400.00
2019-06-01T11:00:04.829Z,2396.00
2019-06-01T11:01:04.726Z,2380.00
2019-06-01T11:02:04.875Z,2380.00
2019-06-01T11:03:04.713Z,2320.00
2019-06-01T11:04:04.776Z,2344.00
2019-06-01T11:05:04.693Z,2368.00
2019-06-01T11:06:04.773Z,2368.00
2019-06-01T11:07:04.662Z,2356.00
2019-06-01T11:08:04.712Z,2376.00
2019-06-01T11:09:04.634Z,2320.00
2019-06-01T11:10:04.703Z,2312.00
2019-06-01T11:11:04.629Z,2276.00
2019-06-01T11:12:04.742Z,2160.00
2019-06-01T11:13:04.621Z,2168.00
2019-06-01T11:15:05.762Z,2316.00
2019-06-01T11:16:04.630Z,2336.00
2019-06-01T11:17:04.555Z,2348.00
2019-06-01T11:18:04.699Z,2356.00
2019-06-01T11:19:04.537Z,2392.00
2019-06-01T11:20:04.559Z,2388.00
2019-06-01T11:21:04.507Z,2396.00
2019-06-01T11:22:04.578Z,2416.00
2019-06-01T11:23:04.516Z,2436.00
2019-06-01T11:24:04.601Z,2400.00
2019-06-01T11:25:04.490Z,2392.00
2019-06-01T11:26:04.497Z,2380.00
2019-06-01T11:27:04.458Z,2408.00
2019-06-01T11:28:04.550Z,2364.00
2019-06-01T11:29:04.453Z,2376.00
2019-06-01T11:30:04.528Z,2356.00
2019-06-01T11:31:04.399Z,2364.00
2019-06-01T11:32:04.440Z,2348.00
2019-06-01T11:33:04.406Z,2340.00
2019-06-01T11:34:04.453Z,2304.00
2019-06-01T11:35:04.373Z,2284.00
2019-06-01T11:36:04.473Z,2252.00
2019-06-01T11:37:05.661Z,2260.00
2019-06-01T11:38:04.410Z,2252.00
2019-06-01T11:39:04.320Z,2256.00
2019-06-01T11:40:04.392Z,2264.00
2019-06-01T11:41:04.312Z,2284.00
2019-06-01T11:42:04.407Z,2272.00
2019-06-01T11:43:04.301Z,2256.00
2019-06-01T11:44:04.313Z,2220.00
2019-06-01T11:45:04.254Z,2236.00
2019-06-01T11:46:04.375Z,2220.00
2019-06-01T11:47:04.253Z,2212.00
2019-06-01T11:48:04.379Z,2180.00
2019-06-01T11:49:04.214Z,2124.00
2019-06-01T11:50:04.258Z,2148.00
2019-06-01T11:51:04.196Z,2148.00
2019-06-01T11:52:04.271Z,2148.00
2019-06-01T11:53:04.240Z,2216.00
2019-06-01T11:54:04.180Z,2212.00
2019-06-01T11:55:04.148Z,2200.00
2019-06-01T11:56:04.199Z,2176.00
2019-06-01T11:57:04.149Z,2196.00
2019-06-01T11:58:04.440Z,2172.00
2019-06-01T11:59:04.164Z,2148.00
2019-06-01T12:00:04.222Z,2188.00
2019-06-01T12:01:04.088Z,2180.00
2019-06-01T12:02:04.135Z,2220.00
2019-06-01T12:03:04.100Z,2216.00
2019-06-01T12:04:04.209Z,2204.00
2019-06-01T12:05:04.083Z,2144.00
2019-06-01T12:06:04.069Z,2184.00
2019-06-01T12:07:16.885Z,2168.00
2019-06-01T12:08:05.009Z,2228.00
2019-06-01T12:09:04.119Z,2288.00
2019-06-01T12:10:04.014Z,2340.00
2019-06-01T12:11:04.460Z,2316.00
2019-06-01T12:12:03.985Z,2268.00
2019-06-01T12:13:04.093Z,2248.00
2019-06-01T12:14:04.026Z,2264.00
2019-06-01T12:15:04.026Z,2256.00
2019-06-01T12:16:03.933Z,2260.00
2019-06-01T12:17:04.040Z,2256.00
2019-06-01T12:18:03.933Z,2244.00
2019-06-01T12:19:03.952Z,2260.00
2019-06-01T12:20:04.087Z,2248.00
2019-06-01T12:21:04.014Z,2244.00
2019-06-01T12:22:03.920Z,2244.00
2019-06-01T12:23:03.980Z,2296.00
2019-06-01T12:24:03.852Z,2320.00
2019-06-01T12:25:04.025Z,2324.00
2019-06-01T12:26:03.885Z,2280.00
2019-06-01T12:27:03.903Z,2352.00
2019-06-01T12:28:04.059Z,2280.00
2019-06-01T12:29:03.939Z,2304.00
2019-06-01T12:30:03.813Z,2252.00
2019-06-01T12:31:03.837Z,2260.00
2019-06-01T12:32:03.821Z,2260.00
2019-06-01T12:33:03.849Z,2220.00
2019-06-01T12:34:03.741Z,2232.00
2019-06-01T12:35:03.887Z,2264.00
2019-06-01T12:36:03.711Z,2224.00
2019-06-01T12:37:03.787Z,2116.00
2019-06-01T12:38:06.677Z,2120.00
2019-06-01T12:39:03.782Z,2096.00
2019-06-01T12:40:07.431Z,2096.00
2019-06-01T12:41:03.693Z,2136.00
2019-06-01T12:42:03.653Z,2172.00
2019-06-01T12:43:03.705Z,2196.00
2019-06-01T12:44:03.765Z,2188.00
2019-06-01T12:45:03.814Z,2220.00
2019-06-01T12:46:07.647Z,2228.00
2019-06-01T12:47:03.634Z,2208.00